sensor_id;sensor_type;location;lat;lon;timestamp;P1;durP1;ratioP1;P2;durP2;ratioP2
8913;SDS011;4492;48.736;9.092;2023-07-30T00:00:42;1.60;;;1.50;;
8913;SDS011;4492;48.736;9.092;2023-07-30T00:03:07;2.33;;;2.13;;
8913;SDS011;4492;48.736;9.092;2023-07-30T00:05:33;2.20;;;2.00;;
8913;SDS011;4492;48.736;9.092;2023-07-30T00:07:58;2.30;;;2.20;;
8913;SDS011;4492;48.736;9.092;2023-07-30T00:10:24;2.77;;;2.20;;
8913;SDS011;4492;48.736;9.092;2023-07-30T00:12:49;4.37;;;2.20;;
8913;SDS011;4492;48.736;9.092;2023-07-30T00:15:15;3.43;;;3.00;;
8913;SDS011;4492;48.736;9.092;2023-07-30T00:17:41;3.30;;;3.00;;
8913;SDS011;4492;48.736;9.092;2023-07-30T00:20:07;3.03;;;2.63;;
8913;SDS011;4492;48.736;9.092;2023-07-30T00:22:33;4.37;;;2.83;;
8913;SDS011;4492;48.736;9.092;2023-07-30T00:24:58;4.20;;;2.93;;
8913;SDS011;4492;48.736;9.092;2023-07-30T00:27:24;3.83;;;3.30;;
8913;SDS011;4492;48.736;9.092;2023-07-30T00:29:49;3.80;;;3.47;;
8913;SDS011;4492;48.736;9.092;2023-07-30T00:32:15;2.87;;;2.40;;
8913;SDS011;4492;48.736;9.092;2023-07-30T00:34:41;2.60;;;2.40;;
8913;SDS011;4492;48.736;9.092;2023-07-30T00:37:07;2.40;;;2.30;;
8913;SDS011;4492;48.736;9.092;2023-07-30T00:39:34;5.97;;;2.30;;
8913;SDS011;4492;48.736;9.092;2023-07-30T00:41:59;2.33;;;2.17;;
8913;SDS011;4492;48.736;9.092;2023-07-30T00:44:25;3.73;;;2.90;;
8913;SDS011;4492;48.736;9.092;2023-07-30T00:46:50;2.90;;;2.70;;
8913;SDS011;4492;48.736;9.092;2023-07-30T00:49:16;3.17;;;2.93;;
8913;SDS011;4492;48.736;9.092;2023-07-30T00:51:42;5.13;;;3.90;;
8913;SDS011;4492;48.736;9.092;2023-07-30T00:54:08;4.67;;;3.80;;
8913;SDS011;4492;48.736;9.092;2023-07-30T00:56:35;7.13;;;4.67;;
8913;SDS011;4492;48.736;9.092;2023-07-30T00:59:01;4.90;;;4.40;;
8913;SDS011;4492;48.736;9.092;2023-07-30T01:01:26;5.30;;;4.63;;
8913;SDS011;4492;48.736;9.092;2023-07-30T01:03:52;7.53;;;5.60;;
8913;SDS011;4492;48.736;9.092;2023-07-30T01:06:18;9.10;;;5.40;;
8913;SDS011;4492;48.736;9.092;2023-07-30T01:08:45;6.40;;;5.40;;
8913;SDS011;4492;48.736;9.092;2023-07-30T01:11:11;6.53;;;5.87;;
8913;SDS011;4492;48.736;9.092;2023-07-30T01:13:39;7.50;;;5.60;;
8913;SDS011;4492;48.736;9.092;2023-07-30T01:16:05;8.70;;;5.80;;
8913;SDS011;4492;48.736;9.092;2023-07-30T01:18:31;6.33;;;5.47;;
8913;SDS011;4492;48.736;9.092;2023-07-30T01:20:57;7.07;;;4.77;;
8913;SDS011;4492;48.736;9.092;2023-07-30T01:23:24;7.67;;;5.23;;
8913;SDS011;4492;48.736;9.092;2023-07-30T01:25:51;6.80;;;4.97;;
8913;SDS011;4492;48.736;9.092;2023-07-30T01:28:26;5.07;;;4.13;;
8913;SDS011;4492;48.736;9.092;2023-07-30T01:30:53;4.33;;;4.03;;
8913;SDS011;4492;48.736;9.092;2023-07-30T01:33:22;4.17;;;3.67;;
8913;SDS011;4492;48.736;9.092;2023-07-30T01:35:47;3.57;;;3.27;;
8913;SDS011;4492;48.736;9.092;2023-07-30T01:38:14;4.33;;;3.13;;
8913;SDS011;4492;48.736;9.092;2023-07-30T01:40:40;3.40;;;3.20;;
8913;SDS011;4492;48.736;9.092;2023-07-30T01:43:07;3.20;;;2.90;;
8913;SDS011;4492;48.736;9.092;2023-07-30T01:45:32;3.73;;;3.33;;
8913;SDS011;4492;48.736;9.092;2023-07-30T01:47:59;3.23;;;3.00;;
8913;SDS011;4492;48.736;9.092;2023-07-30T01:50:25;3.20;;;2.90;;
8913;SDS011;4492;48.736;9.092;2023-07-30T01:52:50;3.53;;;3.20;;
8913;SDS011;4492;48.736;9.092;2023-07-30T01:55:16;2.67;;;2.47;;
8913;SDS011;4492;48.736;9.092;2023-07-30T01:57:42;3.30;;;3.00;;
8913;SDS011;4492;48.736;9.092;2023-07-30T02:00:07;2.97;;;2.67;;
8913;SDS011;4492;48.736;9.092;2023-07-30T02:02:33;3.90;;;2.83;;
8913;SDS011;4492;48.736;9.092;2023-07-30T02:05:00;3.37;;;3.07;;
8913;SDS011;4492;48.736;9.092;2023-07-30T02:07:26;3.70;;;3.40;;
8913;SDS011;4492;48.736;9.092;2023-07-30T02:09:51;4.13;;;3.70;;
8913;SDS011;4492;48.736;9.092;2023-07-30T02:12:17;7.17;;;4.30;;
8913;SDS011;4492;48.736;9.092;2023-07-30T02:14:42;5.97;;;4.20;;
8913;SDS011;4492;48.736;9.092;2023-07-30T02:17:08;7.80;;;4.47;;
8913;SDS011;4492;48.736;9.092;2023-07-30T02:19:33;6.20;;;4.57;;
8913;SDS011;4492;48.736;9.092;2023-07-30T02:21:59;5.23;;;4.50;;
8913;SDS011;4492;48.736;9.092;2023-07-30T02:24:24;5.27;;;4.67;;
8913;SDS011;4492;48.736;9.092;2023-07-30T02:26:49;4.70;;;4.30;;
8913;SDS011;4492;48.736;9.092;2023-07-30T02:29:15;4.97;;;4.47;;
8913;SDS011;4492;48.736;9.092;2023-07-30T02:31:40;4.10;;;3.63;;
8913;SDS011;4492;48.736;9.092;2023-07-30T02:34:06;5.43;;;4.07;;
8913;SDS011;4492;48.736;9.092;2023-07-30T02:36:32;5.00;;;4.33;;
8913;SDS011;4492;48.736;9.092;2023-07-30T02:38:58;4.60;;;4.07;;
8913;SDS011;4492;48.736;9.092;2023-07-30T02:41:24;4.07;;;3.67;;
8913;SDS011;4492;48.736;9.092;2023-07-30T02:43:49;5.37;;;4.07;;
8913;SDS011;4492;48.736;9.092;2023-07-30T02:46:15;3.77;;;3.47;;
8913;SDS011;4492;48.736;9.092;2023-07-30T02:48:40;4.33;;;3.70;;
8913;SDS011;4492;48.736;9.092;2023-07-30T02:51:06;4.70;;;3.80;;
8913;SDS011;4492;48.736;9.092;2023-07-30T02:53:31;3.30;;;3.00;;
8913;SDS011;4492;48.736;9.092;2023-07-30T02:55:57;3.90;;;3.00;;
8913;SDS011;4492;48.736;9.092;2023-07-30T02:58:22;3.77;;;3.27;;
8913;SDS011;4492;48.736;9.092;2023-07-30T03:00:48;2.97;;;2.63;;
8913;SDS011;4492;48.736;9.092;2023-07-30T03:03:13;5.60;;;3.53;;
8913;SDS011;4492;48.736;9.092;2023-07-30T03:05:41;3.83;;;3.53;;
8913;SDS011;4492;48.736;9.092;2023-07-30T03:08:07;3.53;;;3.23;;
8913;SDS011;4492;48.736;9.092;2023-07-30T03:10:33;3.20;;;3.00;;
8913;SDS011;4492;48.736;9.092;2023-07-30T03:12:58;3.70;;;2.93;;
8913;SDS011;4492;48.736;9.092;2023-07-30T03:15:24;5.23;;;3.10;;
8913;SDS011;4492;48.736;9.092;2023-07-30T03:17:49;3.40;;;3.10;;
8913;SDS011;4492;48.736;9.092;2023-07-30T03:20:15;3.17;;;2.90;;
8913;SDS011;4492;48.736;9.092;2023-07-30T03:22:40;3.77;;;3.20;;
8913;SDS011;4492;48.736;9.092;2023-07-30T03:25:06;3.67;;;3.10;;
8913;SDS011;4492;48.736;9.092;2023-07-30T03:27:32;3.57;;;3.27;;
8913;SDS011;4492;48.736;9.092;2023-07-30T03:29:57;3.37;;;3.07;;
8913;SDS011;4492;48.736;9.092;2023-07-30T03:32:23;4.13;;;3.73;;
8913;SDS011;4492;48.736;9.092;2023-07-30T03:34:48;3.53;;;3.27;;
8913;SDS011;4492;48.736;9.092;2023-07-30T03:37:14;6.00;;;3.30;;
8913;SDS011;4492;48.736;9.092;2023-07-30T03:39:39;3.57;;;3.30;;
8913;SDS011;4492;48.736;9.092;2023-07-30T03:42:05;4.33;;;3.53;;
8913;SDS011;4492;48.736;9.092;2023-07-30T03:44:30;4.60;;;3.33;;
8913;SDS011;4492;48.736;9.092;2023-07-30T03:46:56;4.50;;;3.37;;
8913;SDS011;4492;48.736;9.092;2023-07-30T03:49:21;6.33;;;3.43;;
8913;SDS011;4492;48.736;9.092;2023-07-30T03:51:47;4.83;;;3.47;;
8913;SDS011;4492;48.736;9.092;2023-07-30T03:54:12;3.33;;;3.03;;
8913;SDS011;4492;48.736;9.092;2023-07-30T03:56:38;3.43;;;3.07;;
8913;SDS011;4492;48.736;9.092;2023-07-30T03:59:04;3.77;;;2.90;;
8913;SDS011;4492;48.736;9.092;2023-07-30T04:01:29;5.23;;;3.40;;
8913;SDS011;4492;48.736;9.092;2023-07-30T04:03:55;3.70;;;3.30;;
8913;SDS011;4492;48.736;9.092;2023-07-30T04:06:21;3.47;;;3.10;;
8913;SDS011;4492;48.736;9.092;2023-07-30T04:08:46;4.77;;;2.70;;
8913;SDS011;4492;48.736;9.092;2023-07-30T04:11:12;3.60;;;3.00;;
8913;SDS011;4492;48.736;9.092;2023-07-30T04:13:37;2.90;;;2.63;;
8913;SDS011;4492;48.736;9.092;2023-07-30T04:16:03;5.07;;;2.70;;
8913;SDS011;4492;48.736;9.092;2023-07-30T04:18:28;3.80;;;3.03;;
8913;SDS011;4492;48.736;9.092;2023-07-30T04:20:54;3.53;;;2.63;;
8913;SDS011;4492;48.736;9.092;2023-07-30T04:23:21;3.20;;;3.00;;
8913;SDS011;4492;48.736;9.092;2023-07-30T04:25:48;3.40;;;3.20;;
8913;SDS011;4492;48.736;9.092;2023-07-30T04:28:14;3.13;;;2.80;;
8913;SDS011;4492;48.736;9.092;2023-07-30T04:30:40;3.47;;;2.93;;
8913;SDS011;4492;48.736;9.092;2023-07-30T04:33:05;3.03;;;2.73;;
8913;SDS011;4492;48.736;9.092;2023-07-30T04:35:31;3.40;;;3.10;;
8913;SDS011;4492;48.736;9.092;2023-07-30T04:37:56;3.37;;;3.07;;
8913;SDS011;4492;48.736;9.092;2023-07-30T04:40:22;3.63;;;3.30;;
8913;SDS011;4492;48.736;9.092;2023-07-30T04:42:48;3.00;;;2.80;;
8913;SDS011;4492;48.736;9.092;2023-07-30T04:45:13;4.80;;;3.07;;
8913;SDS011;4492;48.736;9.092;2023-07-30T04:47:39;3.93;;;3.33;;
8913;SDS011;4492;48.736;9.092;2023-07-30T04:50:04;3.50;;;3.07;;
8913;SDS011;4492;48.736;9.092;2023-07-30T04:52:30;3.00;;;2.80;;
8913;SDS011;4492;48.736;9.092;2023-07-30T04:54:56;3.27;;;3.03;;
8913;SDS011;4492;48.736;9.092;2023-07-30T04:57:22;4.60;;;3.37;;
8913;SDS011;4492;48.736;9.092;2023-07-30T04:59:47;3.43;;;3.10;;
8913;SDS011;4492;48.736;9.092;2023-07-30T05:02:13;4.90;;;3.70;;
8913;SDS011;4492;48.736;9.092;2023-07-30T05:04:38;3.40;;;3.10;;
8913;SDS011;4492;48.736;9.092;2023-07-30T05:07:04;4.33;;;3.03;;
8913;SDS011;4492;48.736;9.092;2023-07-30T05:09:29;3.93;;;3.53;;
8913;SDS011;4492;48.736;9.092;2023-07-30T05:11:55;6.00;;;3.87;;
8913;SDS011;4492;48.736;9.092;2023-07-30T05:14:21;6.30;;;3.87;;
8913;SDS011;4492;48.736;9.092;2023-07-30T05:16:46;3.67;;;3.37;;
8913;SDS011;4492;48.736;9.092;2023-07-30T05:19:12;3.47;;;3.17;;
8913;SDS011;4492;48.736;9.092;2023-07-30T05:21:37;4.03;;;3.63;;
8913;SDS011;4492;48.736;9.092;2023-07-30T05:24:03;4.00;;;3.70;;
8913;SDS011;4492;48.736;9.092;2023-07-30T05:26:29;4.13;;;3.53;;
8913;SDS011;4492;48.736;9.092;2023-07-30T05:28:54;4.97;;;3.53;;
8913;SDS011;4492;48.736;9.092;2023-07-30T05:31:20;5.90;;;3.50;;
8913;SDS011;4492;48.736;9.092;2023-07-30T05:33:46;4.03;;;3.17;;
8913;SDS011;4492;48.736;9.092;2023-07-30T05:36:12;3.33;;;3.13;;
8913;SDS011;4492;48.736;9.092;2023-07-30T05:38:37;5.00;;;3.17;;
8913;SDS011;4492;48.736;9.092;2023-07-30T05:41:03;3.83;;;3.30;;
8913;SDS011;4492;48.736;9.092;2023-07-30T05:43:28;4.63;;;3.13;;
8913;SDS011;4492;48.736;9.092;2023-07-30T05:45:54;3.43;;;2.80;;
8913;SDS011;4492;48.736;9.092;2023-07-30T05:48:19;3.03;;;2.83;;
8913;SDS011;4492;48.736;9.092;2023-07-30T05:50:45;3.47;;;3.13;;
8913;SDS011;4492;48.736;9.092;2023-07-30T05:53:10;3.97;;;2.53;;
8913;SDS011;4492;48.736;9.092;2023-07-30T05:55:36;3.27;;;2.83;;
8913;SDS011;4492;48.736;9.092;2023-07-30T05:58:01;3.00;;;2.60;;
8913;SDS011;4492;48.736;9.092;2023-07-30T06:00:27;3.00;;;2.77;;
8913;SDS011;4492;48.736;9.092;2023-07-30T06:02:52;4.03;;;2.77;;
8913;SDS011;4492;48.736;9.092;2023-07-30T06:05:18;2.57;;;2.33;;
8913;SDS011;4492;48.736;9.092;2023-07-30T06:07:43;2.70;;;2.50;;
8913;SDS011;4492;48.736;9.092;2023-07-30T06:10:09;5.30;;;2.90;;
8913;SDS011;4492;48.736;9.092;2023-07-30T06:12:34;2.60;;;2.40;;
8913;SDS011;4492;48.736;9.092;2023-07-30T06:15:00;2.80;;;2.60;;
8913;SDS011;4492;48.736;9.092;2023-07-30T06:17:25;3.90;;;2.40;;
8913;SDS011;4492;48.736;9.092;2023-07-30T06:19:51;2.43;;;2.20;;
8913;SDS011;4492;48.736;9.092;2023-07-30T06:22:16;2.10;;;2.00;;
8913;SDS011;4492;48.736;9.092;2023-07-30T06:24:43;2.83;;;1.90;;
8913;SDS011;4492;48.736;9.092;2023-07-30T06:27:09;2.30;;;1.90;;
8913;SDS011;4492;48.736;9.092;2023-07-30T06:29:35;4.03;;;2.00;;
8913;SDS011;4492;48.736;9.092;2023-07-30T06:32:01;2.23;;;2.00;;
8913;SDS011;4492;48.736;9.092;2023-07-30T06:34:26;3.20;;;2.13;;
8913;SDS011;4492;48.736;9.092;2023-07-30T06:36:52;4.60;;;2.23;;
8913;SDS011;4492;48.736;9.092;2023-07-30T06:39:17;2.50;;;2.30;;
8913;SDS011;4492;48.736;9.092;2023-07-30T06:41:43;2.70;;;1.90;;
8913;SDS011;4492;48.736;9.092;2023-07-30T06:44:08;2.40;;;2.00;;
8913;SDS011;4492;48.736;9.092;2023-07-30T06:46:34;1.80;;;1.70;;
8913;SDS011;4492;48.736;9.092;2023-07-30T06:48:59;2.07;;;1.73;;
8913;SDS011;4492;48.736;9.092;2023-07-30T06:51:25;1.67;;;1.47;;
8913;SDS011;4492;48.736;9.092;2023-07-30T06:53:51;3.13;;;1.33;;
8913;SDS011;4492;48.736;9.092;2023-07-30T06:56:17;1.40;;;1.27;;
8913;SDS011;4492;48.736;9.092;2023-07-30T06:58:42;1.53;;;1.43;;
8913;SDS011;4492;48.736;9.092;2023-07-30T07:01:08;1.60;;;1.50;;
8913;SDS011;4492;48.736;9.092;2023-07-30T07:03:33;2.37;;;1.50;;
8913;SDS011;4492;48.736;9.092;2023-07-30T07:05:59;1.57;;;1.40;;
8913;SDS011;4492;48.736;9.092;2023-07-30T07:08:24;1.60;;;1.50;;
8913;SDS011;4492;48.736;9.092;2023-07-30T07:10:50;1.43;;;1.33;;
8913;SDS011;4492;48.736;9.092;2023-07-30T07:13:16;2.10;;;1.37;;
8913;SDS011;4492;48.736;9.092;2023-07-30T07:15:41;1.50;;;1.40;;
8913;SDS011;4492;48.736;9.092;2023-07-30T07:18:08;2.30;;;1.40;;
8913;SDS011;4492;48.736;9.092;2023-07-30T07:20:33;1.50;;;1.27;;
8913;SDS011;4492;48.736;9.092;2023-07-30T07:22:59;1.50;;;1.40;;
8913;SDS011;4492;48.736;9.092;2023-07-30T07:25:25;1.43;;;1.30;;
8913;SDS011;4492;48.736;9.092;2023-07-30T07:27:50;2.47;;;1.37;;
8913;SDS011;4492;48.736;9.092;2023-07-30T07:30:16;3.13;;;1.33;;
8913;SDS011;4492;48.736;9.092;2023-07-30T07:32:41;1.40;;;1.27;;
8913;SDS011;4492;48.736;9.092;2023-07-30T07:35:07;1.00;;;1.00;;
8913;SDS011;4492;48.736;9.092;2023-07-30T07:37:33;2.80;;;1.03;;
8913;SDS011;4492;48.736;9.092;2023-07-30T07:39:59;1.20;;;1.10;;
8913;SDS011;4492;48.736;9.092;2023-07-30T07:42:24;1.03;;;1.03;;
8913;SDS011;4492;48.736;9.092;2023-07-30T07:44:49;1.13;;;1.13;;
8913;SDS011;4492;48.736;9.092;2023-07-30T07:47:15;1.47;;;1.10;;
8913;SDS011;4492;48.736;9.092;2023-07-30T07:49:41;1.20;;;1.00;;
8913;SDS011;4492;48.736;9.092;2023-07-30T07:52:06;1.27;;;1.17;;
8913;SDS011;4492;48.736;9.092;2023-07-30T07:54:32;1.30;;;1.20;;
8913;SDS011;4492;48.736;9.092;2023-07-30T07:56:59;1.10;;;1.10;;
8913;SDS011;4492;48.736;9.092;2023-07-30T07:59:24;1.83;;;1.10;;
8913;SDS011;4492;48.736;9.092;2023-07-30T08:01:50;1.40;;;1.30;;
8913;SDS011;4492;48.736;9.092;2023-07-30T08:04:15;1.30;;;1.20;;
8913;SDS011;4492;48.736;9.092;2023-07-30T08:06:41;1.03;;;1.00;;
8913;SDS011;4492;48.736;9.092;2023-07-30T08:09:06;1.47;;;1.20;;
8913;SDS011;4492;48.736;9.092;2023-07-30T08:11:32;1.33;;;1.03;;
8913;SDS011;4492;48.736;9.092;2023-07-30T08:13:58;1.00;;;1.00;;
8913;SDS011;4492;48.736;9.092;2023-07-30T08:16:23;1.90;;;1.10;;
8913;SDS011;4492;48.736;9.092;2023-07-30T08:18:50;1.30;;;1.20;;
8913;SDS011;4492;48.736;9.092;2023-07-30T08:21:15;1.20;;;1.10;;
8913;SDS011;4492;48.736;9.092;2023-07-30T08:23:42;1.40;;;1.30;;
8913;SDS011;4492;48.736;9.092;2023-07-30T08:26:08;2.60;;;1.20;;
8913;SDS011;4492;48.736;9.092;2023-07-30T08:28:33;1.10;;;1.10;;
8913;SDS011;4492;48.736;9.092;2023-07-30T08:30:59;1.37;;;1.27;;
8913;SDS011;4492;48.736;9.092;2023-07-30T08:33:27;1.13;;;1.10;;
8913;SDS011;4492;48.736;9.092;2023-07-30T08:35:55;1.23;;;1.13;;
8913;SDS011;4492;48.736;9.092;2023-07-30T08:38:22;1.17;;;1.10;;
8913;SDS011;4492;48.736;9.092;2023-07-30T08:40:48;1.40;;;1.30;;
8913;SDS011;4492;48.736;9.092;2023-07-30T08:43:14;1.30;;;1.23;;
8913;SDS011;4492;48.736;9.092;2023-07-30T08:45:40;1.27;;;1.20;;
8913;SDS011;4492;48.736;9.092;2023-07-30T08:48:05;1.33;;;1.23;;
8913;SDS011;4492;48.736;9.092;2023-07-30T08:50:31;1.23;;;1.13;;
8913;SDS011;4492;48.736;9.092;2023-07-30T08:52:57;1.40;;;1.30;;
8913;SDS011;4492;48.736;9.092;2023-07-30T08:55:25;1.07;;;1.07;;
8913;SDS011;4492;48.736;9.092;2023-07-30T08:57:53;1.70;;;1.40;;
8913;SDS011;4492;48.736;9.092;2023-07-30T09:00:19;1.20;;;1.20;;
8913;SDS011;4492;48.736;9.092;2023-07-30T09:02:53;2.13;;;1.47;;
8913;SDS011;4492;48.736;9.092;2023-07-30T09:05:21;1.50;;;1.40;;
8913;SDS011;4492;48.736;9.092;2023-07-30T09:07:47;1.57;;;1.47;;
8913;SDS011;4492;48.736;9.092;2023-07-30T09:10:13;1.67;;;1.50;;
8913;SDS011;4492;48.736;9.092;2023-07-30T09:12:39;1.50;;;1.40;;
8913;SDS011;4492;48.736;9.092;2023-07-30T09:15:06;1.60;;;1.50;;
8913;SDS011;4492;48.736;9.092;2023-07-30T09:17:33;1.37;;;1.27;;
8913;SDS011;4492;48.736;9.092;2023-07-30T09:19:59;2.37;;;1.60;;
8913;SDS011;4492;48.736;9.092;2023-07-30T09:22:26;1.50;;;1.40;;
8913;SDS011;4492;48.736;9.092;2023-07-30T09:24:56;1.53;;;1.47;;
8913;SDS011;4492;48.736;9.092;2023-07-30T09:27:25;2.63;;;1.73;;
8913;SDS011;4492;48.736;9.092;2023-07-30T09:29:54;2.00;;;1.90;;
8913;SDS011;4492;48.736;9.092;2023-07-30T09:32:25;1.33;;;1.23;;
8913;SDS011;4492;48.736;9.092;2023-07-30T09:34:55;1.67;;;1.50;;
8913;SDS011;4492;48.736;9.092;2023-07-30T09:37:29;1.53;;;1.43;;
8913;SDS011;4492;48.736;9.092;2023-07-30T09:39:54;1.40;;;1.40;;
8913;SDS011;4492;48.736;9.092;2023-07-30T09:42:26;2.40;;;1.80;;
8913;SDS011;4492;48.736;9.092;2023-07-30T09:44:52;1.60;;;1.50;;
8913;SDS011;4492;48.736;9.092;2023-07-30T09:47:17;3.10;;;1.37;;
8913;SDS011;4492;48.736;9.092;2023-07-30T09:49:43;1.57;;;1.43;;
8913;SDS011;4492;48.736;9.092;2023-07-30T09:52:09;1.70;;;1.60;;
8913;SDS011;4492;48.736;9.092;2023-07-30T09:54:36;4.00;;;1.70;;
8913;SDS011;4492;48.736;9.092;2023-07-30T09:57:04;1.67;;;1.57;;
8913;SDS011;4492;48.736;9.092;2023-07-30T09:59:30;2.10;;;1.60;;
8913;SDS011;4492;48.736;9.092;2023-07-30T10:01:55;1.60;;;1.50;;
8913;SDS011;4492;48.736;9.092;2023-07-30T10:04:23;1.53;;;1.43;;
8913;SDS011;4492;48.736;9.092;2023-07-30T10:06:59;1.53;;;1.43;;
8913;SDS011;4492;48.736;9.092;2023-07-30T10:09:30;1.60;;;1.50;;
8913;SDS011;4492;48.736;9.092;2023-07-30T10:11:59;1.50;;;1.40;;
8913;SDS011;4492;48.736;9.092;2023-07-30T10:14:26;2.47;;;1.70;;
8913;SDS011;4492;48.736;9.092;2023-07-30T10:16:54;2.33;;;1.60;;
8913;SDS011;4492;48.736;9.092;2023-07-30T10:19:27;1.67;;;1.50;;
8913;SDS011;4492;48.736;9.092;2023-07-30T10:22:39;1.70;;;1.60;;
8913;SDS011;4492;48.736;9.092;2023-07-30T10:24:55;1.90;;;1.70;;
8913;SDS011;4492;48.736;9.092;2023-07-30T10:27:25;2.10;;;1.90;;
8913;SDS011;4492;48.736;9.092;2023-07-30T10:30:12;3.80;;;1.87;;
8913;SDS011;4492;48.736;9.092;2023-07-30T10:32:42;3.20;;;1.70;;
8913;SDS011;4492;48.736;9.092;2023-07-30T10:35:34;1.83;;;1.60;;
8913;SDS011;4492;48.736;9.092;2023-07-30T10:38:08;5.03;;;1.73;;
8913;SDS011;4492;48.736;9.092;2023-07-30T10:41:02;2.90;;;1.73;;
8913;SDS011;4492;48.736;9.092;2023-07-30T10:43:43;1.67;;;1.57;;
8913;SDS011;4492;48.736;9.092;2023-07-30T10:46:13;2.33;;;1.70;;
8913;SDS011;4492;48.736;9.092;2023-07-30T10:48:41;2.03;;;1.77;;
8913;SDS011;4492;48.736;9.092;2023-07-30T10:51:12;1.53;;;1.43;;
8913;SDS011;4492;48.736;9.092;2023-07-30T10:53:46;2.20;;;2.00;;
8913;SDS011;4492;48.736;9.092;2023-07-30T10:56:13;2.00;;;1.73;;
8913;SDS011;4492;48.736;9.092;2023-07-30T10:58:41;1.80;;;1.70;;
8913;SDS011;4492;48.736;9.092;2023-07-30T11:01:08;1.83;;;1.60;;
8913;SDS011;4492;48.736;9.092;2023-07-30T11:03:35;1.93;;;1.83;;
8913;SDS011;4492;48.736;9.092;2023-07-30T11:06:02;2.30;;;2.03;;
8913;SDS011;4492;48.736;9.092;2023-07-30T11:08:40;1.80;;;1.70;;
8913;SDS011;4492;48.736;9.092;2023-07-30T11:11:08;2.53;;;1.97;;
8913;SDS011;4492;48.736;9.092;2023-07-30T11:13:35;2.33;;;2.00;;
8913;SDS011;4492;48.736;9.092;2023-07-30T11:16:01;1.90;;;1.80;;
8913;SDS011;4492;48.736;9.092;2023-07-30T11:18:30;4.07;;;2.03;;
8913;SDS011;4492;48.736;9.092;2023-07-30T11:21:02;4.97;;;2.00;;
8913;SDS011;4492;48.736;9.092;2023-07-30T11:23:28;2.03;;;1.93;;
8913;SDS011;4492;48.736;9.092;2023-07-30T11:25:54;2.20;;;2.00;;
8913;SDS011;4492;48.736;9.092;2023-07-30T11:28:29;1.90;;;1.80;;
8913;SDS011;4492;48.736;9.092;2023-07-30T11:31:03;2.13;;;2.03;;
8913;SDS011;4492;48.736;9.092;2023-07-30T11:33:30;3.07;;;2.23;;
8913;SDS011;4492;48.736;9.092;2023-07-30T11:35:57;3.40;;;1.97;;
8913;SDS011;4492;48.736;9.092;2023-07-30T11:38:25;1.73;;;1.60;;
8913;SDS011;4492;48.736;9.092;2023-07-30T11:40:55;2.00;;;1.80;;
8913;SDS011;4492;48.736;9.092;2023-07-30T11:43:21;2.17;;;2.03;;
8913;SDS011;4492;48.736;9.092;2023-07-30T11:45:47;2.23;;;1.93;;
8913;SDS011;4492;48.736;9.092;2023-07-30T11:48:13;2.67;;;2.00;;
8913;SDS011;4492;48.736;9.092;2023-07-30T11:50:46;3.40;;;1.90;;
8913;SDS011;4492;48.736;9.092;2023-07-30T11:53:12;5.07;;;1.97;;
8913;SDS011;4492;48.736;9.092;2023-07-30T11:55:39;2.00;;;1.87;;
8913;SDS011;4492;48.736;9.092;2023-07-30T11:58:05;2.03;;;1.90;;
8913;SDS011;4492;48.736;9.092;2023-07-30T12:00:32;2.10;;;1.90;;
8913;SDS011;4492;48.736;9.092;2023-07-30T12:03:04;3.37;;;2.00;;
8913;SDS011;4492;48.736;9.092;2023-07-30T12:05:35;2.00;;;1.90;;
8913;SDS011;4492;48.736;9.092;2023-07-30T12:08:02;2.67;;;1.93;;
8913;SDS011;4492;48.736;9.092;2023-07-30T12:10:45;2.80;;;2.50;;
8913;SDS011;4492;48.736;9.092;2023-07-30T12:13:13;2.37;;;2.03;;
8913;SDS011;4492;48.736;9.092;2023-07-30T12:15:42;2.10;;;1.90;;
8913;SDS011;4492;48.736;9.092;2023-07-30T12:18:08;6.07;;;2.10;;
8913;SDS011;4492;48.736;9.092;2023-07-30T12:20:34;2.30;;;2.10;;
8913;SDS011;4492;48.736;9.092;2023-07-30T12:23:00;2.27;;;2.03;;
8913;SDS011;4492;48.736;9.092;2023-07-30T12:25:26;2.10;;;1.90;;
8913;SDS011;4492;48.736;9.092;2023-07-30T12:27:52;2.23;;;2.03;;
8913;SDS011;4492;48.736;9.092;2023-07-30T12:30:17;2.03;;;1.93;;
8913;SDS011;4492;48.736;9.092;2023-07-30T12:32:43;1.70;;;1.60;;
8913;SDS011;4492;48.736;9.092;2023-07-30T12:35:08;2.10;;;1.87;;
8913;SDS011;4492;48.736;9.092;2023-07-30T12:37:34;3.20;;;1.77;;
8913;SDS011;4492;48.736;9.092;2023-07-30T12:40:00;4.00;;;1.70;;
8913;SDS011;4492;48.736;9.092;2023-07-30T12:42:26;3.70;;;2.03;;
8913;SDS011;4492;48.736;9.092;2023-07-30T12:44:51;2.93;;;1.93;;
8913;SDS011;4492;48.736;9.092;2023-07-30T12:47:17;2.17;;;1.63;;
8913;SDS011;4492;48.736;9.092;2023-07-30T12:49:42;2.13;;;1.90;;
8913;SDS011;4492;48.736;9.092;2023-07-30T12:52:07;2.87;;;1.77;;
8913;SDS011;4492;48.736;9.092;2023-07-30T12:54:33;2.07;;;1.97;;
8913;SDS011;4492;48.736;9.092;2023-07-30T12:56:58;1.70;;;1.60;;
8913;SDS011;4492;48.736;9.092;2023-07-30T12:59:24;1.70;;;1.60;;
8913;SDS011;4492;48.736;9.092;2023-07-30T13:01:49;2.00;;;1.80;;
8913;SDS011;4492;48.736;9.092;2023-07-30T13:04:15;2.47;;;2.10;;
8913;SDS011;4492;48.736;9.092;2023-07-30T13:06:41;2.13;;;1.67;;
8913;SDS011;4492;48.736;9.092;2023-07-30T13:09:07;2.60;;;2.20;;
8913;SDS011;4492;48.736;9.092;2023-07-30T13:11:32;2.77;;;1.77;;
8913;SDS011;4492;48.736;9.092;2023-07-30T13:13:58;4.07;;;1.97;;
8913;SDS011;4492;48.736;9.092;2023-07-30T13:16:23;1.90;;;1.80;;
8913;SDS011;4492;48.736;9.092;2023-07-30T13:18:49;2.20;;;2.00;;
8913;SDS011;4492;48.736;9.092;2023-07-30T13:21:14;1.83;;;1.70;;
8913;SDS011;4492;48.736;9.092;2023-07-30T13:23:40;3.37;;;1.90;;
8913;SDS011;4492;48.736;9.092;2023-07-30T13:26:05;1.83;;;1.73;;
8913;SDS011;4492;48.736;9.092;2023-07-30T13:28:31;2.80;;;2.00;;
8913;SDS011;4492;48.736;9.092;2023-07-30T13:30:56;2.43;;;1.53;;
8913;SDS011;4492;48.736;9.092;2023-07-30T13:33:22;2.50;;;1.70;;
8913;SDS011;4492;48.736;9.092;2023-07-30T13:35:47;2.10;;;1.90;;
8913;SDS011;4492;48.736;9.092;2023-07-30T13:38:13;2.67;;;1.70;;
8913;SDS011;4492;48.736;9.092;2023-07-30T13:40:38;5.73;;;1.97;;
8913;SDS011;4492;48.736;9.092;2023-07-30T13:43:04;2.57;;;2.00;;
8913;SDS011;4492;48.736;9.092;2023-07-30T13:45:30;1.83;;;1.73;;
8913;SDS011;4492;48.736;9.092;2023-07-30T13:47:56;2.17;;;1.73;;
8913;SDS011;4492;48.736;9.092;2023-07-30T13:50:21;2.83;;;1.70;;
8913;SDS011;4492;48.736;9.092;2023-07-30T13:52:47;1.63;;;1.53;;
8913;SDS011;4492;48.736;9.092;2023-07-30T13:55:12;2.60;;;1.60;;
8913;SDS011;4492;48.736;9.092;2023-07-30T13:57:38;2.07;;;1.93;;
8913;SDS011;4492;48.736;9.092;2023-07-30T14:00:04;2.53;;;1.90;;
8913;SDS011;4492;48.736;9.092;2023-07-30T14:02:31;3.00;;;1.80;;
8913;SDS011;4492;48.736;9.092;2023-07-30T14:04:56;3.30;;;1.90;;
8913;SDS011;4492;48.736;9.092;2023-07-30T14:07:22;1.83;;;1.60;;
8913;SDS011;4492;48.736;9.092;2023-07-30T14:09:47;2.37;;;1.60;;
8913;SDS011;4492;48.736;9.092;2023-07-30T14:12:13;2.57;;;1.67;;
8913;SDS011;4492;48.736;9.092;2023-07-30T14:14:38;4.00;;;1.73;;
8913;SDS011;4492;48.736;9.092;2023-07-30T14:17:04;1.97;;;1.70;;
8913;SDS011;4492;48.736;9.092;2023-07-30T14:19:31;4.83;;;1.60;;
8913;SDS011;4492;48.736;9.092;2023-07-30T14:21:57;4.00;;;1.93;;
8913;SDS011;4492;48.736;9.092;2023-07-30T14:24:23;2.30;;;1.67;;
8913;SDS011;4492;48.736;9.092;2023-07-30T14:26:49;2.77;;;1.60;;
8913;SDS011;4492;48.736;9.092;2023-07-30T14:29:14;2.00;;;1.80;;
8913;SDS011;4492;48.736;9.092;2023-07-30T14:31:40;3.70;;;2.30;;
8913;SDS011;4492;48.736;9.092;2023-07-30T14:34:05;4.10;;;1.80;;
8913;SDS011;4492;48.736;9.092;2023-07-30T14:36:31;2.93;;;1.70;;
8913;SDS011;4492;48.736;9.092;2023-07-30T14:38:56;8.67;;;1.97;;
8913;SDS011;4492;48.736;9.092;2023-07-30T14:41:22;2.13;;;1.30;;
8913;SDS011;4492;48.736;9.092;2023-07-30T14:43:48;1.73;;;1.30;;
8913;SDS011;4492;48.736;9.092;2023-07-30T14:46:13;3.10;;;1.50;;
8913;SDS011;4492;48.736;9.092;2023-07-30T14:48:43;3.70;;;1.57;;
8913;SDS011;4492;48.736;9.092;2023-07-30T14:51:08;2.97;;;1.43;;
8913;SDS011;4492;48.736;9.092;2023-07-30T14:53:34;5.40;;;1.40;;
8913;SDS011;4492;48.736;9.092;2023-07-30T14:56:00;4.30;;;1.60;;
8913;SDS011;4492;48.736;9.092;2023-07-30T14:58:26;2.73;;;1.50;;
8913;SDS011;4492;48.736;9.092;2023-07-30T15:00:52;1.57;;;1.17;;
8913;SDS011;4492;48.736;9.092;2023-07-30T15:03:17;3.23;;;1.67;;
8913;SDS011;4492;48.736;9.092;2023-07-30T15:05:43;1.50;;;1.40;;
8913;SDS011;4492;48.736;9.092;2023-07-30T15:08:08;2.37;;;1.17;;
8913;SDS011;4492;48.736;9.092;2023-07-30T15:10:34;1.90;;;1.50;;